Amunt
Inicio > meteoXarxa
Fes-te'n soci

METEOXARXA

Vilafamés
Ubicació Ajuntament
Comarca la Plana Alta
Altitud (msnm) 350
Posició geogràfica 40° 6' 52.19" N, 00° 3' 15.42" W
Model Davis Vantage VUE
Presa de dades
Font de les dades Ajuntament de Vilafamés
Estadístiques. Resum
Data Temperatura (ºC) Humitat (%) Pressió (hPa) Vent (km/h) Precipit. (mm)
Mínima Mitjana Màxima Mínima Mitjana Màxima Mínima Mitjana Màxima Predom. Mitjana Ràfega màxima Total Dies de pluja
Mínima Mitjana Màxima Mínima Mitjana Màxima
Últimes dades diàries
24-02-2017 9,7     12,1     15,7 E 7,4 43,5 4,2  
23-02-2017 9,4     12,8     18,3 E 2,3 25,7 0,0  
22-02-2017 7,3     12,4     18,9 E 2,3 20,9 0,0  
21-02-2017 6,3     11,7     18,3 SE 2,4 24,1 0,0  
20-02-2017 6,5     10,4     15,6 SE 3,4 20,9 0,0  
19-02-2017 7,1     9,7     13,4 E 4,3 32,2 0,0  
18-02-2017 6,6     10,1     15,6 ESE 2,4 20,9 0,0  
17-02-2017 5,3     9,8     14,9 E 2,3 20,9 0,0  
16-02-2017 8,3     10,8     14,4 ESE 1,8 17,7 0,0  
15-02-2017 7,0     10,3     15,2 E 2,3 17,7 0,0  
14-02-2017 7,6     11,1     16,3 SE 3,1 29,0 0,2  
13-02-2017 8,9     11,3     15,6 ENE 7,1 35,4 9,2  
12-02-2017 9,6     11,1     13,0 ENE 10,0 32,2 0,0  
11-02-2017 6,2     8,5     10,8 NE 8,4 38,6 0,0  
10-02-2017 3,5     7,0     11,0 ESE 4,3 22,5 0,0  
09-02-2017 5,4     8,8     13,6 NW 13,8 74,0 0,0  
08-02-2017 7,4     9,1     11,4 NW 46,5 122,3  
07-02-2017 11,3     16,0     19,2 WNW 11,6 77,2 0,0  
06-02-2017 9,2     13,1     16,7 WNW 25,7 101,4 0,0  
05-02-2017 7,1     12,8     16,2 WNW 40,7 114,3 3,6  
04-02-2017 14,0     16,4     19,5 SW 29,3 75,6 0,0  
03-02-2017 7,7     13,4     18,0 WSW 16,7 62,8 0,0  
02-02-2017 6,4     10,3     14,1 SW 8,2 51,5 1,6  
01-02-2017 5,2     9,6     17,4 E 3,1 25,7 0,2  
31-01-2017 7,5     10,6     15,9 WSW 2,3 20,9 0,0  
30-01-2017 7,7     11,5     17,1 ESE 2,4 24,1 0,0  
29-01-2017 6,5     9,4     13,5 E 2,4 19,3 0,0  
28-01-2017 6,9     10,2     13,5 NW 17,1 66,0 3,8  
27-01-2017 5,8     8,2     13,3 WSW 5,6 61,2 15,8  
26-01-2017 2,0     5,8     9,8 E 1,4 20,9 0,0  
25-01-2017 3,7     7,4     12,1 ESE 2,9 30,6 0,0  
24-01-2017 7,8     9,8     14,1 NW 5,0 27,4 0,0  
Dades del mes en curs (actualitzades fins l'últim dia disponible)
02/2017 3,5 7,6 14,0 11,2 10,8 15,5 19,5   10,8 122,3 19,0  
Últimes dades mensuals
01/2017 -0,3 5,0 9,0 8,6 6,3 12,7 19,1 10,2 111,0 91,8 8
12/2016 3,8 7,5 12,1 10,6 8,9 14,6 17,7 5,1 66,0 143,4 9
11/2016 5,2 9,4 14,4 12,9 10,9 16,8 23,4 6,1 74,0 110,8 10
10/2016 10,9 14,6 17,8 18,0 16,5 22,5 27,1 2,6 35,4 24,8 7
09/2016 13,0 17,8 26,2 22,2 23,5 27,4 37,7 4,2 77,2 23,4 4
08/2016 16,7 19,3 21,8 23,9 24,4 29,0 33,2 4,4 51,5 2,2 3
Dades de l'any en curs (actualitzades fins l'últim dia disponible)
2017 -0,3 6,1 14,0 9,7 6,3 13,9 19,5   10,5 122,3 110,8  
Últimes dades anuals